Time;durP1;ratioP1;P1;durP2;ratioP2;P2;SDS_P1;SDS_P2;PMS_P1;PMS_P2;Temp;Humidity;BMP_temperature;BMP_pressure;BME280_temperature;BME280_humidity;BME280_pressure;Samples;Min_cycle;Max_cycle;Signal;HPM_P1;HPM_P2
2023/07/22 00:00:15;;;;;;;4.50;3.60;;;;;;;19.07;79.60;98536.23;107789;1309;23162;-50
2023/07/22 00:02:42;;;;;;;5.00;4.10;;;;;;;19.01;80.38;98529.70;107775;1309;22055;-44
2023/07/22 00:05:10;;;;;;;4.60;3.70;;;;;;;18.95;81.32;98528.36;107783;1299;22237;-43
2023/07/22 00:07:35;;;;;;;4.30;3.50;;;;;;;18.92;80.28;98528.91;107743;1308;22457;-46
2023/07/22 00:10:00;;;;;;;5.60;3.70;;;;;;;18.91;79.61;98528.58;107774;1309;23239;-50
2023/07/22 00:12:26;;;;;;;6.70;3.60;;;;;;;18.89;79.85;98527.55;107761;1308;22230;-47
2023/07/22 00:14:53;;;;;;;3.80;3.50;;;;;;;18.88;78.84;98524.45;107755;1308;22235;-49
2023/07/22 00:17:18;;;;;;;5.00;3.50;;;;;;;18.88;78.67;98522.76;107767;1309;22302;-53
2023/07/22 00:19:43;;;;;;;4.50;3.50;;;;;;;18.82;78.26;98524.01;107788;1308;22978;-45
2023/07/22 00:22:09;;;;;;;5.20;3.70;;;;;;;18.74;79.91;98525.46;107767;1309;22403;-50
2023/07/22 00:24:34;;;;;;;4.60;3.80;;;;;;;18.71;80.04;98526.67;107761;1309;24232;-49
2023/07/22 00:27:01;;;;;;;4.10;3.60;;;;;;;18.69;79.59;98532.05;107806;1309;22221;-48
2023/07/22 00:29:26;;;;;;;5.70;3.60;;;;;;;18.62;81.48;98530.77;107538;1309;22244;-49
2023/07/22 00:31:51;;;;;;;5.40;4.10;;;;;;;18.58;81.21;98527.98;107770;1309;22224;-48
2023/07/22 00:34:17;;;;;;;5.10;3.70;;;;;;;18.57;80.84;98526.17;107769;1309;22206;-52
2023/07/22 00:36:43;;;;;;;4.20;3.50;;;;;;;18.53;82.39;98527.13;107783;1309;23078;-43
2023/07/22 00:39:08;;;;;;;5.50;3.90;;;;;;;18.50;81.31;98519.42;107778;1308;22436;-43
2023/07/22 00:41:33;;;;;;;3.70;3.40;;;;;;;18.40;82.17;98520.38;107770;1309;22455;-47
2023/07/22 00:43:58;;;;;;;4.70;3.60;;;;;;;18.37;81.43;98519.06;107766;1294;22216;-51
2023/07/22 00:46:24;;;;;;;3.60;3.10;;;;;;;18.33;82.15;98511.96;107778;1308;22484;-49
2023/07/22 00:48:50;;;;;;;6.50;3.20;;;;;;;18.32;82.84;98516.05;107799;1309;23268;-46
2023/07/22 00:51:16;;;;;;;3.80;3.20;;;;;;;18.32;82.16;98518.85;107761;1309;22215;-47
2023/07/22 00:53:41;;;;;;;4.00;3.20;;;;;;;18.31;82.17;98523.63;107794;1309;22833;-50
2023/07/22 00:56:07;;;;;;;4.80;3.80;;;;;;;18.29;82.90;98524.33;107789;1308;22244;-50
2023/07/22 00:58:33;;;;;;;4.40;3.40;;;;;;;18.27;83.05;98521.83;107791;1309;22299;-42
2023/07/22 01:00:59;;;;;;;3.90;3.60;;;;;;;18.23;83.18;98524.89;107795;1309;22234;-52
2023/07/22 01:03:25;;;;;;;4.80;3.80;;;;;;;18.17;83.43;98520.00;107763;1285;22227;-48
2023/07/22 01:05:51;;;;;;;5.20;4.00;;;;;;;18.11;84.32;98516.20;107798;1309;22312;-44
2023/07/22 01:08:17;;;;;;;4.60;3.80;;;;;;;18.10;84.46;98512.06;107812;1309;22387;-47
2023/07/22 01:10:42;;;;;;;5.70;3.70;;;;;;;18.07;84.16;98510.17;107781;1290;23047;-44
2023/07/22 01:13:08;;;;;;;7.60;3.80;;;;;;;18.06;83.02;98510.13;107786;1309;22425;-48
2023/07/22 01:15:33;;;;;;;9.20;3.60;;;;;;;18.00;83.58;98511.07;107766;1309;22279;-46
2023/07/22 01:18:01;;;;;;;3.90;3.30;;;;;;;17.98;83.50;98505.20;107737;1308;22362;-44
2023/07/22 01:20:30;;;;;;;5.80;3.80;;;;;;;17.99;83.20;98502.48;107775;1292;22396;-44
2023/07/22 01:22:56;;;;;;;7.20;3.40;;;;;;;18.00;82.76;98498.20;107782;1309;22284;-48
2023/07/22 01:25:21;;;;;;;4.10;3.40;;;;;;;18.00;82.96;98494.48;107784;1309;23168;-48
2023/07/22 01:27:48;;;;;;;3.80;3.40;;;;;;;17.99;82.73;98498.91;107763;1309;22220;-48
2023/07/22 01:30:14;;;;;;;6.90;3.70;;;;;;;18.01;82.22;98498.53;107752;1309;22223;-46
2023/07/22 01:32:39;;;;;;;4.20;3.80;;;;;;;18.04;82.23;98495.41;107776;1309;22343;-49
2023/07/22 01:35:05;;;;;;;6.40;3.40;;;;;;;18.07;82.50;98493.70;107790;1308;22287;-52
2023/07/22 01:37:31;;;;;;;4.10;3.50;;;;;;;18.09;81.98;98489.09;107771;1309;22818;-47
2023/07/22 01:39:57;;;;;;;5.20;3.30;;;;;;;18.10;81.57;98493.04;107779;1309;22217;-51
2023/07/22 01:42:23;;;;;;;4.60;3.80;;;;;;;18.13;80.88;98496.84;107754;1309;22257;-50
2023/07/22 01:44:48;;;;;;;3.90;3.50;;;;;;;18.11;81.66;98495.73;107775;1309;22498;-50
2023/07/22 01:47:13;;;;;;;5.00;3.40;;;;;;;18.12;82.37;98498.66;107772;1309;22205;-47
2023/07/22 01:49:38;;;;;;;5.40;4.00;;;;;;;18.13;82.78;98499.67;107783;1309;23167;-48
2023/07/22 01:52:05;;;;;;;6.00;3.70;;;;;;;18.13;83.40;98491.99;107763;1309;22212;-45
2023/07/22 01:54:30;;;;;;;5.80;3.60;;;;;;;18.14;82.90;98495.36;107802;1309;22406;-47
2023/07/22 01:56:55;;;;;;;8.00;3.80;;;;;;;18.14;81.97;98487.99;107743;1309;22223;-45
2023/07/22 01:59:21;;;;;;;4.70;3.50;;;;;;;18.16;82.81;98484.13;107771;1309;22407;-43
2023/07/22 02:01:47;;;;;;;3.70;3.10;;;;;;;18.17;81.24;98485.45;107771;1309;22217;-48
2023/07/22 02:04:12;;;;;;;7.00;3.30;;;;;;;18.17;81.30;98487.95;107729;1309;22369;-48
2023/07/22 02:06:38;;;;;;;5.00;3.60;;;;;;;18.13;82.89;98484.55;107699;1309;22171;-47
2023/07/22 02:09:08;;;;;;;4.90;3.70;;;;;;;18.13;81.81;98491.14;107761;1309;22255;-43
2023/07/22 02:11:35;;;;;;;3.90;3.50;;;;;;;18.10;82.30;98497.15;107709;1309;22230;-46
2023/07/22 02:14:00;;;;;;;5.90;3.40;;;;;;;18.09;81.46;98497.59;107749;1309;22249;-44
2023/07/22 02:16:25;;;;;;;7.70;3.50;;;;;;;18.06;81.89;98501.91;107755;1309;22219;-41
2023/07/22 02:18:51;;;;;;;7.80;3.30;;;;;;;18.05;81.94;98498.85;107732;1309;22338;-46
2023/07/22 02:21:16;;;;;;;6.70;3.50;;;;;;;18.05;81.12;98497.81;107731;1309;22220;-47
2023/07/22 02:23:42;;;;;;;4.00;3.60;;;;;;;18.01;82.68;98498.88;107735;1309;22295;-43
2023/07/22 02:26:08;;;;;;;6.50;3.50;;;;;;;17.98;82.80;98503.11;107733;1309;22387;-47
2023/07/22 02:28:33;;;;;;;4.80;3.30;;;;;;;17.96;82.18;98510.02;107749;1309;22416;-46
2023/07/22 02:31:02;;;;;;;3.50;2.70;;;;;;;17.95;82.60;98513.11;107724;1309;22206;-50
2023/07/22 02:33:27;;;;;;;4.50;3.50;;;;;;;17.92;82.93;98522.98;107729;1309;22227;-43
2023/07/22 02:35:52;;;;;;;5.40;3.80;;;;;;;17.87;83.62;98526.88;107727;1309;22216;-51
2023/07/22 02:38:18;;;;;;;5.00;3.50;;;;;;;17.81;83.72;98522.24;107729;1309;22230;-46
2023/07/22 02:43:36;;;;;;;3.80;3.50;;;;;;;17.73;84.18;98528.90;107456;1299;544937;-48
2023/07/22 02:46:05;;;;;;;4.50;3.60;;;;;;;17.68;84.45;98536.15;107811;1309;22474;-48
2023/07/22 02:48:31;;;;;;;4.40;3.40;;;;;;;17.63;84.28;98539.77;107821;1309;22237;-46
2023/07/22 02:51:05;;;;;;;5.70;3.90;;;;;;;17.60;84.11;98543.61;107795;1309;22312;-47
2023/07/22 02:53:32;;;;;;;4.10;3.40;;;;;;;17.59;84.09;98542.84;107782;1309;22517;-51
2023/07/22 02:55:57;;;;;;;5.40;3.50;;;;;;;17.58;83.40;98540.58;107828;1288;22220;-50
2023/07/22 02:58:22;;;;;;;4.50;3.20;;;;;;;17.55;83.09;98543.89;107893;1306;172991;-46
2023/07/22 03:00:47;;;;;;;7.10;3.60;;;;;;;17.49;83.79;98542.52;108015;1306;22246;-46
2023/07/22 03:03:13;;;;;;;4.70;3.50;;;;;;;17.49;82.87;98545.05;108060;1306;23195;-43
2023/07/22 03:05:38;;;;;;;4.50;3.60;;;;;;;17.49;83.48;98543.13;108057;1306;22397;-47
2023/07/22 03:08:03;;;;;;;4.80;3.40;;;;;;;17.45;83.54;98547.67;108023;1306;22960;-50
2023/07/22 03:10:29;;;;;;;8.40;3.70;;;;;;;17.43;83.47;98541.85;108027;1306;22979;-48
2023/07/22 03:12:55;;;;;;;7.70;3.60;;;;;;;17.42;84.15;98541.12;108027;1306;22241;-44
2023/07/22 03:15:25;;;;;;;4.60;4.00;;;;;;;17.40;83.90;98539.14;108049;1306;23188;-41
2023/07/22 03:17:51;;;;;;;4.90;3.40;;;;;;;17.42;82.77;98541.63;108035;1306;22326;-46
2023/07/22 03:20:18;;;;;;;7.60;3.30;;;;;;;17.41;83.12;98545.80;108040;1306;22756;-44
2023/07/22 03:22:43;;;;;;;3.70;3.40;;;;;;;17.39;83.19;98541.55;108040;1306;22391;-47
2023/07/22 03:25:13;;;;;;;4.50;3.40;;;;;;;17.39;82.75;98543.70;108069;1302;22932;-46
2023/07/22 03:27:39;;;;;;;4.60;3.20;;;;;;;17.31;83.25;98546.34;108135;1286;22552;-47
2023/07/22 03:30:14;;;;;;;4.60;3.30;;;;;;;17.29;82.36;98556.30;108118;1306;22220;-45
2023/07/22 03:32:40;;;;;;;5.20;3.30;;;;;;;17.24;82.74;98568.08;108129;1305;22405;-48
2023/07/22 03:35:08;;;;;;;4.70;3.00;;;;;;;17.20;82.75;98568.45;108112;1306;22292;-45
2023/07/22 03:37:35;;;;;;;7.20;3.20;;;;;;;17.16;82.72;98569.20;108117;1306;22436;-45
2023/07/22 03:40:01;;;;;;;4.00;3.00;;;;;;;17.16;82.07;98577.16;108131;1306;22304;-47
2023/07/22 03:42:26;;;;;;;6.30;3.30;;;;;;;17.17;81.63;98577.09;108116;1306;22590;-43
2023/07/22 03:44:51;;;;;;;6.80;2.70;;;;;;;17.15;81.70;98575.48;108114;1287;22237;-49
2023/07/22 03:47:17;;;;;;;7.10;3.00;;;;;;;17.02;83.63;98570.41;108163;1306;23222;-46
2023/07/22 03:49:42;;;;;;;4.80;3.30;;;;;;;17.05;82.35;98572.15;108139;1306;23587;-45
2023/07/22 03:52:07;;;;;;;7.80;3.10;;;;;;;17.06;82.49;98569.47;108147;1305;22259;-48
2023/07/22 03:54:33;;;;;;;3.80;3.30;;;;;;;17.05;82.88;98564.38;108122;1306;22499;-49
2023/07/22 03:56:58;;;;;;;3.40;3.00;;;;;;;17.07;82.67;98560.88;108116;1306;22510;-44
2023/07/22 03:59:23;;;;;;;8.40;3.70;;;;;;;17.07;82.15;98559.77;108122;1306;24881;-48
2023/07/22 04:01:48;;;;;;;9.50;3.70;;;;;;;17.11;81.94;98570.73;108120;1305;22233;-50
2023/07/22 04:04:14;;;;;;;4.70;3.10;;;;;;;17.14;81.26;98570.81;108133;1306;22225;-48
2023/07/22 04:06:39;;;;;;;7.30;3.60;;;;;;;17.15;82.22;98577.86;108125;1306;22307;-49
2023/07/22 04:09:04;;;;;;;5.70;3.80;;;;;;;17.18;82.15;98579.11;108117;1306;23138;-46
2023/07/22 04:11:29;;;;;;;4.50;3.80;;;;;;;17.17;82.54;98581.20;108125;1305;22238;-49
2023/07/22 04:13:55;;;;;;;3.50;3.20;;;;;;;17.20;81.94;98578.58;108116;1291;22416;-48
2023/07/22 04:16:20;;;;;;;6.40;3.10;;;;;;;17.23;82.53;98579.48;108107;1305;22233;-51
2023/07/22 04:18:45;;;;;;;3.00;2.70;;;;;;;17.30;81.51;98587.96;108126;1306;22472;-49
2023/07/22 04:21:11;;;;;;;3.30;2.80;;;;;;;17.29;81.73;98588.59;108113;1305;23117;-51
2023/07/22 04:23:37;;;;;;;4.10;2.90;;;;;;;17.29;81.37;98592.84;108121;1305;22240;-51
2023/07/22 04:26:07;;;;;;;5.20;2.50;;;;;;;17.28;81.47;98592.77;108131;1305;22267;-49
2023/07/22 04:28:34;;;;;;;6.80;3.00;;;;;;;17.27;81.81;98585.51;108129;1305;22449;-50
2023/07/22 04:31:00;;;;;;;3.90;2.70;;;;;;;17.25;82.26;98579.84;108141;1306;22234;-50
2023/07/22 04:33:26;;;;;;;9.70;2.60;;;;;;;17.25;81.84;98581.29;108134;1305;22362;-44
2023/07/22 04:35:54;;;;;;;3.00;2.50;;;;;;;17.27;81.58;98581.69;108138;1306;22917;-45
2023/07/22 04:38:19;;;;;;;4.00;2.40;;;;;;;17.25;81.26;98585.77;108145;1305;22384;-47
2023/07/22 04:40:44;;;;;;;3.00;2.20;;;;;;;17.27;80.46;98589.13;108113;1306;23601;-50
2023/07/22 04:43:09;;;;;;;2.70;2.30;;;;;;;17.22;80.20;98592.96;108128;1306;22304;-50
2023/07/22 04:45:35;;;;;;;2.60;2.20;;;;;;;17.23;79.70;98601.14;108127;1306;22368;-46
2023/07/22 04:48:02;;;;;;;5.10;2.20;;;;;;;17.21;79.81;98603.96;108132;1306;23329;-49
2023/07/22 04:50:27;;;;;;;4.00;2.40;;;;;;;17.23;79.74;98612.13;108126;1306;22443;-46
2023/07/22 04:52:52;;;;;;;2.40;2.20;;;;;;;17.23;80.14;98620.30;108139;1305;22229;-50
2023/07/22 04:55:17;;;;;;;2.80;2.60;;;;;;;17.22;80.20;98619.48;108108;1305;22881;-52
2023/07/22 04:57:45;;;;;;;3.10;2.80;;;;;;;17.25;80.10;98623.05;108127;1305;22290;-47
2023/07/22 05:00:15;;;;;;;3.80;2.30;;;;;;;17.24;80.38;98614.80;108138;1306;22388;-50
2023/07/22 05:02:45;;;;;;;2.40;2.00;;;;;;;17.27;80.70;98610.19;108141;1305;22322;-47
2023/07/22 05:05:11;;;;;;;4.40;2.20;;;;;;;17.29;80.72;98612.08;108119;1305;22285;-47
2023/07/22 05:07:36;;;;;;;2.70;2.10;;;;;;;17.30;80.71;98615.55;108145;1306;22459;-49
2023/07/22 05:10:01;;;;;;;5.90;2.80;;;;;;;17.26;81.03;98617.29;108128;1306;22915;-49
2023/07/22 05:12:26;;;;;;;4.00;2.40;;;;;;;17.25;81.05;98622.59;108106;1306;22375;-44
2023/07/22 05:14:52;;;;;;;5.00;2.80;;;;;;;17.23;81.19;98625.94;108114;1305;22125;-49
2023/07/22 05:17:17;;;;;;;5.90;3.00;;;;;;;17.20;81.13;98631.05;108128;1305;23240;-48
2023/07/22 05:19:43;;;;;;;5.80;3.10;;;;;;;17.11;81.91;98628.12;108141;1306;22891;-45
2023/07/22 05:22:08;;;;;;;3.40;3.00;;;;;;;17.04;82.39;98627.21;108139;1305;22388;-44
2023/07/22 05:24:33;;;;;;;3.80;2.70;;;;;;;17.01;82.83;98626.27;108140;1305;22384;-50
2023/07/22 05:26:59;;;;;;;9.30;3.00;;;;;;;17.04;83.19;98625.08;108118;1306;22192;-47
2023/07/22 05:29:24;;;;;;;4.20;3.00;;;;;;;17.08;82.20;98624.55;108117;1305;22385;-47
2023/07/22 05:31:49;;;;;;;4.20;3.00;;;;;;;17.14;81.84;98624.65;108139;1306;22896;-45
2023/07/22 05:34:15;;;;;;;3.80;2.90;;;;;;;17.15;82.14;98626.48;108132;1305;22278;-50
2023/07/22 05:36:40;;;;;;;6.10;3.10;;;;;;;17.12;82.88;98629.60;108112;1305;22231;-53
2023/07/22 05:39:05;;;;;;;6.20;3.10;;;;;;;17.14;82.94;98632.09;108111;1306;22441;-47
2023/07/22 05:41:33;;;;;;;3.50;2.70;;;;;;;17.22;82.15;98633.10;108108;1306;22307;-47
2023/07/22 05:43:58;;;;;;;;;;;;;;;17.30;82.05;98636.70;108123;1305;22426;-49
2023/07/22 05:46:23;;;;;;;3.50;2.80;;;;;;;17.41;81.98;98634.55;108136;1305;22215;-49
2023/07/22 05:48:48;;;;;;;3.70;2.70;;;;;;;17.52;81.04;98638.33;108111;1306;22380;-46
2023/07/22 05:51:15;;;;;;;3.70;2.70;;;;;;;17.53;80.72;98634.64;108081;1305;22233;-46
2023/07/22 05:53:40;;;;;;;3.10;2.80;;;;;;;17.57;79.63;98633.39;108136;1306;22220;-50
2023/07/22 05:56:05;;;;;;;5.40;2.80;;;;;;;17.59;79.21;98632.17;108131;1306;22904;-51
2023/07/22 05:58:30;;;;;;;3.30;2.50;;;;;;;17.61;78.78;98636.24;108101;1306;22241;-44
2023/07/22 06:00:56;;;;;;;3.00;2.70;;;;;;;17.58;78.39;98636.13;108127;1284;22381;-47
2023/07/22 06:03:21;;;;;;;5.80;3.00;;;;;;;17.63;78.24;98638.34;108114;1305;22226;-52
2023/07/22 06:05:47;;;;;;;4.70;3.10;;;;;;;17.59;78.35;98636.58;108103;1305;22243;-49
2023/07/22 06:08:12;;;;;;;4.40;3.20;;;;;;;17.60;78.30;98639.63;108132;1306;22539;-44
2023/07/22 06:10:38;;;;;;;5.60;3.30;;;;;;;17.68;77.83;98640.73;108134;1306;22455;-50
2023/07/22 06:13:04;;;;;;;4.00;2.80;;;;;;;17.72;77.02;98642.05;108113;1306;22441;-48
2023/07/22 06:15:29;;;;;;;4.50;3.40;;;;;;;17.72;76.27;98642.10;108114;1305;22267;-48
2023/07/22 06:17:55;;;;;;;4.70;3.10;;;;;;;17.72;76.83;98641.23;108098;1305;22645;-48
2023/07/22 06:20:20;;;;;;;4.60;3.00;;;;;;;17.79;76.54;98643.35;108118;1305;22221;-44
2023/07/22 06:22:45;;;;;;;5.10;3.00;;;;;;;17.86;76.27;98645.70;108101;1305;22413;-47
2023/07/22 06:25:11;;;;;;;2.80;2.40;;;;;;;17.93;76.19;98649.02;108106;1306;22311;-45
2023/07/22 06:27:37;;;;;;;5.40;2.50;;;;;;;17.99;75.90;98649.29;108119;1305;22745;-50
2023/07/22 06:30:03;;;;;;;3.90;1.90;;;;;;;18.05;74.25;98650.99;108115;1305;22273;-50
2023/07/22 06:32:29;;;;;;;2.70;1.70;;;;;;;18.09;71.41;98651.86;108109;1305;22261;-42
2023/07/22 06:34:58;;;;;;;3.00;1.40;;;;;;;18.15;70.68;98650.90;108116;1306;22221;-49
2023/07/22 06:37:24;;;;;;;2.70;1.60;;;;;;;18.21;69.94;98654.64;108116;1306;22446;-46
2023/07/22 06:39:50;;;;;;;2.20;1.70;;;;;;;18.26;69.14;98656.48;108123;1306;22273;-47
2023/07/22 06:42:15;;;;;;;3.50;1.70;;;;;;;18.32;69.06;98659.02;108098;1305;22236;-47
2023/07/22 06:44:40;;;;;;;2.20;1.90;;;;;;;18.34;67.85;98661.16;108114;1306;22211;-47
2023/07/22 06:47:06;;;;;;;2.40;2.00;;;;;;;18.36;67.47;98662.55;108081;1305;23077;-48
2023/07/22 06:49:32;;;;;;;4.40;2.00;;;;;;;18.40;67.41;98669.66;108102;1305;23059;-48
2023/07/22 06:51:57;;;;;;;2.30;1.60;;;;;;;18.42;66.50;98671.73;108108;1306;23222;-44
2023/07/22 06:54:23;;;;;;;3.90;1.50;;;;;;;18.43;66.43;98671.64;108120;1306;22225;-50
2023/07/22 06:56:48;;;;;;;2.90;1.80;;;;;;;18.50;66.29;98672.02;108105;1306;22852;-48
2023/07/22 06:59:13;;;;;;;8.90;2.10;;;;;;;18.58;66.78;98675.36;108098;1306;22411;-52
2023/07/22 07:01:39;;;;;;;2.00;1.70;;;;;;;18.61;65.89;98680.38;108104;1306;25168;-46
2023/07/22 07:04:04;;;;;;;2.20;1.50;;;;;;;18.65;65.89;98674.11;108092;1305;22268;-42
2023/07/22 07:06:29;;;;;;;2.10;1.50;;;;;;;18.69;65.36;98678.46;108101;1306;23092;-49
2023/07/22 07:08:55;;;;;;;1.90;1.60;;;;;;;18.72;64.89;98681.45;108103;1306;23073;-48
2023/07/22 07:11:20;;;;;;;3.60;1.80;;;;;;;18.77;64.96;98684.29;108058;1306;22960;-50
2023/07/22 07:13:45;;;;;;;4.10;1.80;;;;;;;18.79;64.59;98674.29;108109;1305;22219;-47
2023/07/22 07:16:26;;;;;;;6.40;2.10;;;;;;;18.91;64.30;98676.73;108059;1305;22402;-48
2023/07/22 07:18:52;;;;;;;2.10;1.40;;;;;;;18.99;63.99;98680.42;108108;1306;22254;-48
2023/07/22 07:21:21;;;;;;;5.50;2.00;;;;;;;19.08;64.69;98678.06;108098;1306;22213;-45
2023/07/22 07:23:47;;;;;;;1.80;1.60;;;;;;;19.16;64.21;98679.70;108082;1305;22298;-45
2023/07/22 07:26:13;;;;;;;7.00;2.10;;;;;;;19.19;62.88;98683.72;108103;1306;22563;-50
2023/07/22 07:28:38;;;;;;;1.90;1.80;;;;;;;19.25;63.70;98684.34;108072;1306;22127;-48
2023/07/22 07:31:03;;;;;;;4.80;2.00;;;;;;;19.29;63.39;98694.59;108061;1306;22858;-46
2023/07/22 07:33:29;;;;;;;3.70;1.70;;;;;;;19.37;63.50;98697.54;108074;1306;23146;-45
2023/07/22 07:35:54;;;;;;;4.10;2.00;;;;;;;19.42;63.41;98692.59;108118;1306;22238;-49
2023/07/22 07:38:19;;;;;;;4.00;2.40;;;;;;;19.46;62.88;98691.48;108133;1282;22273;-48
2023/07/22 07:40:45;;;;;;;2.00;1.80;;;;;;;19.56;63.23;98699.15;108098;1306;22223;-48
2023/07/22 07:43:10;;;;;;;2.30;1.70;;;;;;;19.69;61.56;98703.39;108117;1305;22218;-46
2023/07/22 07:45:39;;;;;;;3.70;1.90;;;;;;;19.70;61.27;98699.00;108111;1306;25160;-47
2023/07/22 07:48:05;;;;;;;1.70;1.60;;;;;;;19.73;61.33;98699.73;108123;1306;22466;-46
2023/07/22 07:50:30;;;;;;;3.70;1.60;;;;;;;19.78;60.82;98703.39;108118;1306;22242;-49
2023/07/22 07:52:56;;;;;;;5.10;1.70;;;;;;;19.83;60.36;98708.34;108117;1306;22210;-50
2023/07/22 07:55:21;;;;;;;4.90;1.70;;;;;;;19.89;60.33;98709.12;108099;1306;22276;-50
2023/07/22 07:57:46;;;;;;;4.30;1.70;;;;;;;19.92;59.53;98713.10;108098;1306;22422;-49
2023/07/22 08:00:12;;;;;;;2.50;1.50;;;;;;;20.00;59.57;98713.87;108102;1306;22411;-44
2023/07/22 08:02:37;;;;;;;3.70;1.70;;;;;;;20.13;58.91;98724.05;108017;1306;22317;-44
2023/07/22 08:05:03;;;;;;;1.60;1.50;;;;;;;20.24;56.63;98727.95;108088;1289;22284;-46
2023/07/22 08:07:28;;;;;;;2.40;1.70;;;;;;;20.34;56.48;98728.83;108128;1306;22230;-49
2023/07/22 08:09:54;;;;;;;2.20;1.20;;;;;;;20.44;56.41;98728.87;108111;1306;22245;-44
2023/07/22 08:12:19;;;;;;;3.70;1.60;;;;;;;20.50;55.23;98735.13;108113;1306;22244;-52
2023/07/22 08:14:44;;;;;;;5.20;1.50;;;;;;;20.58;55.10;98731.84;108095;1306;22484;-48
2023/07/22 08:17:10;;;;;;;3.20;1.40;;;;;;;20.63;55.68;98736.49;108119;1306;23221;-43
2023/07/22 08:19:35;;;;;;;5.80;1.50;;;;;;;20.75;56.31;98734.54;108112;1306;22221;-49
2023/07/22 08:22:01;;;;;;;3.70;1.40;;;;;;;20.80;54.23;98735.14;108110;1306;22841;-50
2023/07/22 08:24:26;;;;;;;1.50;1.40;;;;;;;20.89;54.88;98738.36;108089;1305;22184;-48
2023/07/22 08:26:52;;;;;;;1.90;1.30;;;;;;;20.94;53.54;98740.35;108097;1306;22394;-48
2023/07/22 08:29:17;;;;;;;2.00;1.30;;;;;;;21.00;52.47;98760.17;108103;1306;23244;-49
2023/07/22 08:31:42;;;;;;;7.20;1.80;;;;;;;21.05;52.23;98751.63;108115;1305;22480;-51
2023/07/22 08:34:08;;;;;;;2.90;1.70;;;;;;;21.15;51.29;98756.89;108090;1306;23299;-46
2023/07/22 08:36:34;;;;;;;2.30;1.60;;;;;;;21.30;51.95;98752.20;108106;1306;22891;-44
2023/07/22 08:38:59;;;;;;;2.20;1.60;;;;;;;21.41;51.70;98749.34;108112;1306;22317;-52
2023/07/22 08:41:25;;;;;;;3.80;1.90;;;;;;;21.44;51.78;98751.02;108114;1305;22435;-50
2023/07/22 08:43:51;;;;;;;6.60;1.80;;;;;;;21.52;51.52;98748.19;108124;1306;23341;-46
2023/07/22 08:46:19;;;;;;;2.30;1.40;;;;;;;21.54;51.25;98746.63;108089;1306;22401;-50
2023/07/22 08:48:48;;;;;;;7.00;1.80;;;;;;;21.65;51.90;98747.55;108084;1305;22937;-50
2023/07/22 08:51:16;;;;;;;1.50;1.40;;;;;;;21.89;51.43;98743.86;108114;1306;22235;-48
2023/07/22 08:53:44;;;;;;;4.00;1.70;;;;;;;21.81;50.37;98744.34;108108;1306;22239;-52
2023/07/22 08:56:10;;;;;;;4.60;1.60;;;;;;;21.73;50.85;98753.02;108098;1306;23030;-46
2023/07/22 08:58:36;;;;;;;2.10;1.70;;;;;;;21.83;50.96;98756.45;108113;1305;22237;-46
2023/07/22 09:01:02;;;;;;;1.70;1.60;;;;;;;22.06;49.77;98758.84;108089;1305;22245;-43
2023/07/22 09:03:28;;;;;;;5.10;1.60;;;;;;;22.26;48.52;98766.80;108102;1305;23164;-51
2023/07/22 09:05:54;;;;;;;2.80;1.70;;;;;;;22.37;47.66;98769.67;108095;1305;22213;-47
2023/07/22 09:08:20;;;;;;;1.80;1.60;;;;;;;22.36;47.82;98767.85;108080;1285;23120;-47
2023/07/22 09:10:46;;;;;;;1.70;1.30;;;;;;;22.37;47.30;98765.77;108101;1305;22394;-48
2023/07/22 09:13:14;;;;;;;5.40;1.30;;;;;;;22.57;46.32;98778.02;108103;1305;22240;-51
2023/07/22 09:15:39;;;;;;;1.90;1.50;;;;;;;22.60;45.85;98778.35;108122;1306;22207;-51
2023/07/22 09:18:05;;;;;;;1.60;1.50;;;;;;;22.73;45.92;98779.57;108116;1306;23086;-51
2023/07/22 09:20:31;;;;;;;1.40;1.30;;;;;;;22.77;46.00;98774.59;108097;1305;22392;-48
2023/07/22 09:22:56;;;;;;;1.60;1.50;;;;;;;22.75;46.22;98778.18;108078;1306;22303;-45
2023/07/22 09:25:24;;;;;;;1.40;1.30;;;;;;;22.89;45.90;98785.08;108082;1306;22870;-44
2023/07/22 09:27:52;;;;;;;1.60;1.50;;;;;;;22.86;45.70;98784.98;108090;1305;22943;-45
2023/07/22 09:30:20;;;;;;;1.40;1.10;;;;;;;23.17;44.16;98789.20;108076;1306;23144;-50
2023/07/22 09:32:45;;;;;;;1.90;1.30;;;;;;;23.43;42.11;98792.45;108138;1305;22405;-44
2023/07/22 09:35:11;;;;;;;3.10;1.20;;;;;;;23.73;42.37;98791.27;108080;1305;22372;-51
2023/07/22 09:37:38;;;;;;;8.20;1.40;;;;;;;23.97;40.37;98779.98;108086;1305;22236;-48
2023/07/22 09:40:17;;;;;;;1.40;1.00;;;;;;;24.42;40.08;98782.41;108100;1305;23019;-44
2023/07/22 09:42:54;;;;;;;5.00;1.70;;;;;;;24.95;38.26;98783.60;108077;1306;22391;-46
2023/07/22 09:45:24;;;;;;;9.20;1.20;;;;;;;25.46;37.41;98791.45;108083;1305;22291;-45
2023/07/22 09:47:52;;;;;;;3.10;1.20;;;;;;;25.91;36.38;98792.45;108095;1305;23259;-49
2023/07/22 09:50:19;;;;;;;3.10;1.10;;;;;;;26.09;36.26;98791.76;108115;1305;22392;-50
2023/07/22 09:52:54;;;;;;;1.90;1.10;;;;;;;26.33;36.47;98800.19;108095;1306;22327;-47
2023/07/22 09:55:25;;;;;;;1.70;1.00;;;;;;;26.71;35.08;98796.15;108082;1306;22244;-47
2023/07/22 09:57:53;;;;;;;1.10;1.00;;;;;;;27.07;34.73;98797.88;108087;1306;22233;-45
2023/07/22 10:00:21;;;;;;;2.40;0.90;;;;;;;27.00;33.82;98805.25;108055;1306;22614;-50
2023/07/22 10:02:51;;;;;;;1.10;1.00;;;;;;;27.14;32.47;98801.64;107887;1305;22188;-51
2023/07/22 10:05:18;;;;;;;2.20;1.40;;;;;;;27.30;32.51;98805.84;108097;1306;22829;-50
2023/07/22 10:07:49;;;;;;;1.20;1.10;;;;;;;27.09;32.93;98809.51;108059;1305;22361;-47
2023/07/22 10:10:17;;;;;;;2.60;1.00;;;;;;;27.27;33.24;98807.64;108066;1305;23148;-51
2023/07/22 10:12:43;;;;;;;1.90;1.20;;;;;;;27.69;33.20;98810.66;108048;1302;22964;-47
2023/07/22 10:15:11;;;;;;;3.10;1.30;;;;;;;27.72;31.63;98802.03;108086;1306;22391;-48
2023/07/22 10:17:36;;;;;;;1.00;0.90;;;;;;;28.06;30.88;98794.59;108078;1306;22240;-49
2023/07/22 10:20:06;;;;;;;1.10;1.00;;;;;;;28.29;30.72;98795.79;108071;1306;22407;-49
2023/07/22 10:22:36;;;;;;;4.20;1.20;;;;;;;28.04;31.03;98804.08;108082;1306;22945;-47
2023/07/22 10:25:05;;;;;;;1.10;1.00;;;;;;;27.97;31.40;98807.69;108089;1306;22405;-48
2023/07/22 10:27:31;;;;;;;1.20;1.10;;;;;;;27.90;31.07;98805.94;108084;1306;22211;-51
2023/07/22 10:29:56;;;;;;;6.80;1.00;;;;;;;27.95;31.56;98801.73;108089;1306;22909;-51
2023/07/22 10:32:41;;;;;;;2.80;1.30;;;;;;;27.72;31.52;98812.63;108107;1306;22296;-49
2023/07/22 10:35:13;;;;;;;1.60;1.00;;;;;;;27.15;31.69;98812.54;108084;1306;22384;-45
2023/07/22 10:37:41;;;;;;;1.60;1.00;;;;;;;26.53;32.17;98806.32;107722;1306;22265;-47
2023/07/22 10:40:29;;;;;;;1.00;1.00;;;;;;;26.14;33.31;98807.66;108103;1306;22186;-46
2023/07/22 10:43:02;;;;;;;1.00;1.00;;;;;;;25.68;34.51;98812.34;108072;1306;22230;-49
2023/07/22 10:45:40;;;;;;;1.30;1.20;;;;;;;26.00;34.49;98813.14;107725;1306;22459;-48
2023/07/22 10:48:07;;;;;;;9.90;1.30;;;;;;;26.68;33.62;98812.55;108069;1306;22211;-47
2023/07/22 10:50:43;;;;;;;1.90;1.30;;;;;;;27.10;32.88;98821.42;108109;1306;22403;-47
2023/07/22 10:53:13;;;;;;;2.70;1.20;;;;;;;26.79;32.61;98819.15;108063;1306;22899;-46
2023/07/22 10:56:16;;;;;;;2.40;1.20;;;;;;;26.31;33.46;98822.27;108085;1306;22230;-50
2023/07/22 10:58:45;;;;;;;1.70;1.10;;;;;;;25.62;34.48;98825.49;108099;1306;22270;-47
2023/07/22 11:01:28;;;;;;;3.40;1.30;;;;;;;25.17;35.32;98832.69;108083;1306;22141;-47
2023/07/22 11:04:18;;;;;;;2.10;1.50;;;;;;;24.69;36.34;98837.52;108088;1306;22370;-47
2023/07/22 11:06:43;;;;;;;2.60;1.40;;;;;;;24.28;37.25;98841.12;108087;1306;22204;-47
2023/07/22 11:09:34;;;;;;;3.00;1.60;;;;;;;24.36;37.82;98839.82;108063;1306;22405;-48
2023/07/22 11:12:02;;;;;;;1.90;1.30;;;;;;;25.22;36.52;98837.48;108091;1306;22310;-46
2023/07/22 11:14:37;;;;;;;4.80;1.20;;;;;;;26.14;34.48;98833.10;108090;1306;22417;-47
2023/07/22 11:17:05;;;;;;;5.50;1.40;;;;;;;27.08;33.19;98828.91;108090;1306;22119;-49
2023/07/22 11:19:32;;;;;;;4.00;1.20;;;;;;;27.81;32.32;98833.98;108095;1306;22999;-45
2023/07/22 11:21:58;;;;;;;3.30;1.40;;;;;;;28.49;31.77;98839.20;108075;1306;22236;-49
2023/07/22 11:24:24;;;;;;;2.80;1.20;;;;;;;28.85;30.10;98840.38;108089;1306;22212;-49